sensor_id;sensor_type;location;lat;lon;timestamp;P1;durP1;ratioP1;P2;durP2;ratioP2
22675;SDS011;12521;43.310;21.876;2023-07-20T00:02:50;7.0;;;3.0;;
22675;SDS011;12521;43.310;21.876;2023-07-20T00:07:27;7.0;;;3.0;;
22675;SDS011;12521;43.310;21.876;2023-07-20T00:12:04;7.0;;;3.0;;
22675;SDS011;12521;43.310;21.876;2023-07-20T00:16:42;7.0;;;3.0;;
22675;SDS011;12521;43.310;21.876;2023-07-20T00:21:19;7.0;;;3.0;;
22675;SDS011;12521;43.310;21.876;2023-07-20T03:15:57;5.0;;;4.0;;
22675;SDS011;12521;43.310;21.876;2023-07-20T03:20:36;5.0;;;4.0;;
22675;SDS011;12521;43.310;21.876;2023-07-20T03:25:13;5.0;;;4.0;;
22675;SDS011;12521;43.310;21.876;2023-07-20T03:29:49;5.0;;;4.0;;
22675;SDS011;12521;43.310;21.876;2023-07-20T03:34:26;6.0;;;4.0;;
22675;SDS011;12521;43.310;21.876;2023-07-20T03:39:03;6.0;;;4.0;;
22675;SDS011;12521;43.310;21.876;2023-07-20T03:43:39;7.0;;;3.0;;
22675;SDS011;12521;43.310;21.876;2023-07-20T03:48:22;7.0;;;3.0;;
22675;SDS011;12521;43.310;21.876;2023-07-20T03:52:58;7.0;;;3.0;;
22675;SDS011;12521;43.310;21.876;2023-07-20T03:57:35;7.0;;;3.0;;
22675;SDS011;12521;43.310;21.876;2023-07-20T04:02:11;7.0;;;3.0;;
22675;SDS011;12521;43.310;21.876;2023-07-20T04:06:48;7.0;;;3.0;;
22675;SDS011;12521;43.310;21.876;2023-07-20T04:11:24;7.0;;;3.0;;
22675;SDS011;12521;43.310;21.876;2023-07-20T04:16:01;8.0;;;4.0;;
22675;SDS011;12521;43.310;21.876;2023-07-20T04:20:37;8.0;;;4.0;;
22675;SDS011;12521;43.310;21.876;2023-07-20T04:25:15;8.0;;;4.0;;
22675;SDS011;12521;43.310;21.876;2023-07-20T04:29:53;8.0;;;4.0;;
22675;SDS011;12521;43.310;21.876;2023-07-20T04:34:29;8.0;;;4.0;;
22675;SDS011;12521;43.310;21.876;2023-07-20T04:39:06;8.0;;;4.0;;
22675;SDS011;12521;43.310;21.876;2023-07-20T04:43:44;9.0;;;5.0;;
22675;SDS011;12521;43.310;21.876;2023-07-20T04:48:21;9.0;;;5.0;;
22675;SDS011;12521;43.310;21.876;2023-07-20T04:52:57;10.0;;;5.0;;
22675;SDS011;12521;43.310;21.876;2023-07-20T04:57:33;10.0;;;5.0;;
22675;SDS011;12521;43.310;21.876;2023-07-20T05:02:10;10.0;;;5.0;;
22675;SDS011;12521;43.310;21.876;2023-07-20T05:06:46;10.0;;;5.0;;
22675;SDS011;12521;43.310;21.876;2023-07-20T05:11:23;10.0;;;5.0;;
22675;SDS011;12521;43.310;21.876;2023-07-20T05:15:59;8.0;;;4.0;;
22675;SDS011;12521;43.310;21.876;2023-07-20T05:20:35;8.0;;;4.0;;
22675;SDS011;12521;43.310;21.876;2023-07-20T05:25:12;6.0;;;4.0;;
22675;SDS011;12521;43.310;21.876;2023-07-20T05:29:48;6.0;;;4.0;;
22675;SDS011;12521;43.310;21.876;2023-07-20T05:34:24;7.0;;;4.0;;
22675;SDS011;12521;43.310;21.876;2023-07-20T05:39:01;7.0;;;4.0;;
22675;SDS011;12521;43.310;21.876;2023-07-20T05:43:37;8.0;;;4.0;;
22675;SDS011;12521;43.310;21.876;2023-07-20T05:48:13;8.0;;;4.0;;
22675;SDS011;12521;43.310;21.876;2023-07-20T05:52:54;7.0;;;4.0;;
22675;SDS011;12521;43.310;21.876;2023-07-20T05:57:31;7.0;;;4.0;;
22675;SDS011;12521;43.310;21.876;2023-07-20T06:02:07;7.0;;;4.0;;
22675;SDS011;12521;43.310;21.876;2023-07-20T06:06:44;6.0;;;4.0;;
22675;SDS011;12521;43.310;21.876;2023-07-20T06:11:21;6.0;;;4.0;;
22675;SDS011;12521;43.310;21.876;2023-07-20T06:15:57;8.0;;;4.0;;
22675;SDS011;12521;43.310;21.876;2023-07-20T06:20:33;8.0;;;4.0;;
22675;SDS011;12521;43.310;21.876;2023-07-20T06:25:10;10.0;;;5.0;;
22675;SDS011;12521;43.310;21.876;2023-07-20T06:29:47;10.0;;;5.0;;
22675;SDS011;12521;43.310;21.876;2023-07-20T06:34:23;9.0;;;5.0;;
22675;SDS011;12521;43.310;21.876;2023-07-20T06:38:59;9.0;;;5.0;;
22675;SDS011;12521;43.310;21.876;2023-07-20T06:43:36;8.0;;;5.0;;
22675;SDS011;12521;43.310;21.876;2023-07-20T06:48:12;8.0;;;5.0;;
22675;SDS011;12521;43.310;21.876;2023-07-20T06:52:49;8.0;;;6.0;;
22675;SDS011;12521;43.310;21.876;2023-07-20T06:57:26;8.0;;;6.0;;
22675;SDS011;12521;43.310;21.876;2023-07-20T07:02:04;8.0;;;6.0;;
22675;SDS011;12521;43.310;21.876;2023-07-20T07:06:41;8.0;;;6.0;;
22675;SDS011;12521;43.310;21.876;2023-07-20T07:11:18;8.0;;;6.0;;
22675;SDS011;12521;43.310;21.876;2023-07-20T07:15:55;8.0;;;6.0;;
22675;SDS011;12521;43.310;21.876;2023-07-20T07:20:31;8.0;;;6.0;;
22675;SDS011;12521;43.310;21.876;2023-07-20T07:25:10;8.0;;;5.0;;
22675;SDS011;12521;43.310;21.876;2023-07-20T07:29:47;8.0;;;5.0;;
22675;SDS011;12521;43.310;21.876;2023-07-20T07:34:24;8.0;;;5.0;;
22675;SDS011;12521;43.310;21.876;2023-07-20T07:39:00;8.0;;;5.0;;
22675;SDS011;12521;43.310;21.876;2023-07-20T07:43:37;9.0;;;5.0;;
22675;SDS011;12521;43.310;21.876;2023-07-20T07:48:13;9.0;;;5.0;;
22675;SDS011;12521;43.310;21.876;2023-07-20T07:52:50;8.0;;;4.0;;
22675;SDS011;12521;43.310;21.876;2023-07-20T07:57:26;8.0;;;4.0;;
22675;SDS011;12521;43.310;21.876;2023-07-20T08:02:05;8.0;;;4.0;;
22675;SDS011;12521;43.310;21.876;2023-07-20T08:06:42;7.0;;;4.0;;
22675;SDS011;12521;43.310;21.876;2023-07-20T08:11:18;7.0;;;4.0;;
22675;SDS011;12521;43.310;21.876;2023-07-20T08:15:54;8.0;;;4.0;;
22675;SDS011;12521;43.310;21.876;2023-07-20T08:20:30;8.0;;;4.0;;
22675;SDS011;12521;43.310;21.876;2023-07-20T08:25:09;8.0;;;5.0;;
22675;SDS011;12521;43.310;21.876;2023-07-20T08:29:46;8.0;;;5.0;;
22675;SDS011;12521;43.310;21.876;2023-07-20T08:34:23;8.0;;;4.0;;
22675;SDS011;12521;43.310;21.876;2023-07-20T08:38:59;8.0;;;4.0;;
22675;SDS011;12521;43.310;21.876;2023-07-20T08:43:44;8.0;;;4.0;;
22675;SDS011;12521;43.310;21.876;2023-07-20T08:48:27;8.0;;;4.0;;
22675;SDS011;12521;43.310;21.876;2023-07-20T08:53:10;8.0;;;4.0;;
22675;SDS011;12521;43.310;21.876;2023-07-20T08:57:56;8.0;;;4.0;;
22675;SDS011;12521;43.310;21.876;2023-07-20T09:02:41;8.0;;;5.0;;
22675;SDS011;12521;43.310;21.876;2023-07-20T09:07:23;8.0;;;5.0;;
22675;SDS011;12521;43.310;21.876;2023-07-20T09:12:01;8.0;;;5.0;;
22675;SDS011;12521;43.310;21.876;2023-07-20T09:16:49;8.0;;;5.0;;
22675;SDS011;12521;43.310;21.876;2023-07-20T09:21:29;8.0;;;5.0;;
22675;SDS011;12521;43.310;21.876;2023-07-20T09:26:13;9.0;;;5.0;;
22675;SDS011;12521;43.310;21.876;2023-07-20T09:30:50;9.0;;;5.0;;
22675;SDS011;12521;43.310;21.876;2023-07-20T09:35:26;7.0;;;4.0;;
22675;SDS011;12521;43.310;21.876;2023-07-20T09:40:08;7.0;;;4.0;;
22675;SDS011;12521;43.310;21.876;2023-07-20T09:44:46;5.0;;;4.0;;
22675;SDS011;12521;43.310;21.876;2023-07-20T09:49:24;5.0;;;4.0;;
22675;SDS011;12521;43.310;21.876;2023-07-20T09:54:03;7.0;;;5.0;;
22675;SDS011;12521;43.310;21.876;2023-07-20T09:58:46;7.0;;;5.0;;
22675;SDS011;12521;43.310;21.876;2023-07-20T10:03:30;9.0;;;6.0;;
22675;SDS011;12521;43.310;21.876;2023-07-20T10:08:20;9.0;;;6.0;;
22675;SDS011;12521;43.310;21.876;2023-07-20T10:13:03;8.0;;;6.0;;
22675;SDS011;12521;43.310;21.876;2023-07-20T10:18:09;8.0;;;6.0;;
22675;SDS011;12521;43.310;21.876;2023-07-20T10:22:58;8.0;;;5.0;;
22675;SDS011;12521;43.310;21.876;2023-07-20T10:27:39;8.0;;;5.0;;
22675;SDS011;12521;43.310;21.876;2023-07-20T10:32:19;8.0;;;5.0;;
22675;SDS011;12521;43.310;21.876;2023-07-20T10:36:56;8.0;;;5.0;;
22675;SDS011;12521;43.310;21.876;2023-07-20T10:41:40;8.0;;;5.0;;
22675;SDS011;12521;43.310;21.876;2023-07-20T10:46:45;8.0;;;5.0;;
22675;SDS011;12521;43.310;21.876;2023-07-20T10:51:23;8.0;;;5.0;;
22675;SDS011;12521;43.310;21.876;2023-07-20T10:56:13;8.0;;;6.0;;
22675;SDS011;12521;43.310;21.876;2023-07-20T11:01:00;8.0;;;6.0;;
22675;SDS011;12521;43.310;21.876;2023-07-20T11:05:40;9.0;;;6.0;;
22675;SDS011;12521;43.310;21.876;2023-07-20T11:10:17;9.0;;;6.0;;
22675;SDS011;12521;43.310;21.876;2023-07-20T11:14:57;8.0;;;6.0;;
22675;SDS011;12521;43.310;21.876;2023-07-20T11:19:34;8.0;;;6.0;;
22675;SDS011;12521;43.310;21.876;2023-07-20T11:24:11;8.0;;;6.0;;
22675;SDS011;12521;43.310;21.876;2023-07-20T11:28:50;8.0;;;6.0;;
22675;SDS011;12521;43.310;21.876;2023-07-20T11:33:27;8.0;;;6.0;;
22675;SDS011;12521;43.310;21.876;2023-07-20T11:38:04;8.0;;;6.0;;
22675;SDS011;12521;43.310;21.876;2023-07-20T11:42:40;8.0;;;6.0;;
22675;SDS011;12521;43.310;21.876;2023-07-20T11:47:17;8.0;;;6.0;;
22675;SDS011;12521;43.310;21.876;2023-07-20T11:51:56;8.0;;;6.0;;
22675;SDS011;12521;43.310;21.876;2023-07-20T11:56:33;8.0;;;6.0;;
22675;SDS011;12521;43.310;21.876;2023-07-20T12:01:11;8.0;;;6.0;;
22675;SDS011;12521;43.310;21.876;2023-07-20T12:05:48;7.0;;;5.0;;
22675;SDS011;12521;43.310;21.876;2023-07-20T12:10:28;7.0;;;5.0;;
22675;SDS011;12521;43.310;21.876;2023-07-20T12:15:26;9.0;;;6.0;;
22675;SDS011;12521;43.310;21.876;2023-07-20T12:20:05;9.0;;;6.0;;
22675;SDS011;12521;43.310;21.876;2023-07-20T12:24:43;11.0;;;6.0;;
22675;SDS011;12521;43.310;21.876;2023-07-20T12:29:20;11.0;;;6.0;;
22675;SDS011;12521;43.310;21.876;2023-07-20T12:33:58;10.0;;;6.0;;
22675;SDS011;12521;43.310;21.876;2023-07-20T12:38:34;10.0;;;6.0;;
22675;SDS011;12521;43.310;21.876;2023-07-20T12:43:11;8.0;;;6.0;;
22675;SDS011;12521;43.310;21.876;2023-07-20T12:47:48;8.0;;;6.0;;
22675;SDS011;12521;43.310;21.876;2023-07-20T12:52:25;8.0;;;6.0;;
22675;SDS011;12521;43.310;21.876;2023-07-20T12:57:01;8.0;;;6.0;;
22675;SDS011;12521;43.310;21.876;2023-07-20T13:01:39;8.0;;;6.0;;
22675;SDS011;12521;43.310;21.876;2023-07-20T13:06:15;9.0;;;5.0;;
22675;SDS011;12521;43.310;21.876;2023-07-20T13:10:52;9.0;;;5.0;;
22675;SDS011;12521;43.310;21.876;2023-07-20T13:15:32;8.0;;;5.0;;
22675;SDS011;12521;43.310;21.876;2023-07-20T13:20:18;8.0;;;5.0;;
22675;SDS011;12521;43.310;21.876;2023-07-20T13:24:54;8.0;;;5.0;;
22675;SDS011;12521;43.310;21.876;2023-07-20T13:29:30;8.0;;;5.0;;
22675;SDS011;12521;43.310;21.876;2023-07-20T13:34:06;8.0;;;6.0;;
22675;SDS011;12521;43.310;21.876;2023-07-20T13:38:43;8.0;;;6.0;;
22675;SDS011;12521;43.310;21.876;2023-07-20T13:43:19;9.0;;;8.0;;
22675;SDS011;12521;43.310;21.876;2023-07-20T13:47:55;9.0;;;8.0;;
22675;SDS011;12521;43.310;21.876;2023-07-20T13:52:32;9.0;;;8.0;;
22675;SDS011;12521;43.310;21.876;2023-07-20T13:57:08;9.0;;;8.0;;
22675;SDS011;12521;43.310;21.876;2023-07-20T14:01:45;9.0;;;8.0;;
22675;SDS011;12521;43.310;21.876;2023-07-20T14:06:21;9.0;;;8.0;;
22675;SDS011;12521;43.310;21.876;2023-07-20T14:10:58;9.0;;;8.0;;
22675;SDS011;12521;43.310;21.876;2023-07-20T14:15:35;10.0;;;8.0;;
22675;SDS011;12521;43.310;21.876;2023-07-20T14:20:12;10.0;;;8.0;;
22675;SDS011;12521;43.310;21.876;2023-07-20T14:24:48;12.0;;;7.0;;
22675;SDS011;12521;43.310;21.876;2023-07-20T14:29:25;12.0;;;7.0;;
22675;SDS011;12521;43.310;21.876;2023-07-20T14:34:01;12.0;;;7.0;;
22675;SDS011;12521;43.310;21.876;2023-07-20T14:38:38;12.0;;;7.0;;
22675;SDS011;12521;43.310;21.876;2023-07-20T14:43:14;11.0;;;7.0;;
22675;SDS011;12521;43.310;21.876;2023-07-20T14:47:50;11.0;;;7.0;;
22675;SDS011;12521;43.310;21.876;2023-07-20T14:52:26;11.0;;;7.0;;
22675;SDS011;12521;43.310;21.876;2023-07-20T14:57:03;10.0;;;7.0;;
22675;SDS011;12521;43.310;21.876;2023-07-20T15:01:41;10.0;;;7.0;;
22675;SDS011;12521;43.310;21.876;2023-07-20T15:06:17;8.0;;;7.0;;
22675;SDS011;12521;43.310;21.876;2023-07-20T15:10:54;8.0;;;7.0;;
22675;SDS011;12521;43.310;21.876;2023-07-20T15:15:31;8.0;;;7.0;;
22675;SDS011;12521;43.310;21.876;2023-07-20T15:20:12;8.0;;;7.0;;
22675;SDS011;12521;43.310;21.876;2023-07-20T15:24:50;9.0;;;7.0;;
22675;SDS011;12521;43.310;21.876;2023-07-20T15:29:27;9.0;;;7.0;;
22675;SDS011;12521;43.310;21.876;2023-07-20T15:34:04;8.0;;;6.0;;
22675;SDS011;12521;43.310;21.876;2023-07-20T15:38:40;8.0;;;6.0;;
22675;SDS011;12521;43.310;21.876;2023-07-20T15:43:17;7.0;;;6.0;;
22675;SDS011;12521;43.310;21.876;2023-07-20T15:47:53;7.0;;;6.0;;
22675;SDS011;12521;43.310;21.876;2023-07-20T15:52:30;7.0;;;6.0;;
22675;SDS011;12521;43.310;21.876;2023-07-20T15:57:07;8.0;;;6.0;;
22675;SDS011;12521;43.310;21.876;2023-07-20T16:01:43;8.0;;;6.0;;
22675;SDS011;12521;43.310;21.876;2023-07-20T16:06:20;8.0;;;7.0;;
22675;SDS011;12521;43.310;21.876;2023-07-20T16:10:57;8.0;;;7.0;;
22675;SDS011;12521;43.310;21.876;2023-07-20T16:15:33;8.0;;;6.0;;
22675;SDS011;12521;43.310;21.876;2023-07-20T16:20:11;8.0;;;6.0;;
22675;SDS011;12521;43.310;21.876;2023-07-20T16:24:47;7.0;;;6.0;;
22675;SDS011;12521;43.310;21.876;2023-07-20T16:29:24;7.0;;;6.0;;
22675;SDS011;12521;43.310;21.876;2023-07-20T16:34:00;8.0;;;6.0;;
22675;SDS011;12521;43.310;21.876;2023-07-20T16:38:37;8.0;;;6.0;;
22675;SDS011;12521;43.310;21.876;2023-07-20T16:43:16;9.0;;;6.0;;
22675;SDS011;12521;43.310;21.876;2023-07-20T16:47:52;9.0;;;6.0;;
22675;SDS011;12521;43.310;21.876;2023-07-20T16:52:29;9.0;;;6.0;;
22675;SDS011;12521;43.310;21.876;2023-07-20T16:57:08;9.0;;;6.0;;
22675;SDS011;12521;43.310;21.876;2023-07-20T17:01:44;9.0;;;6.0;;
22675;SDS011;12521;43.310;21.876;2023-07-20T17:06:21;9.0;;;7.0;;
22675;SDS011;12521;43.310;21.876;2023-07-20T17:10:57;9.0;;;7.0;;
22675;SDS011;12521;43.310;21.876;2023-07-20T17:15:34;10.0;;;6.0;;
22675;SDS011;12521;43.310;21.876;2023-07-20T17:20:11;10.0;;;6.0;;
22675;SDS011;12521;43.310;21.876;2023-07-20T17:24:47;10.0;;;6.0;;
22675;SDS011;12521;43.310;21.876;2023-07-20T17:29:23;10.0;;;6.0;;
22675;SDS011;12521;43.310;21.876;2023-07-20T17:34:01;9.0;;;6.0;;
22675;SDS011;12521;43.310;21.876;2023-07-20T17:38:38;9.0;;;6.0;;
22675;SDS011;12521;43.310;21.876;2023-07-20T17:43:15;8.0;;;6.0;;
22675;SDS011;12521;43.310;21.876;2023-07-20T17:47:51;8.0;;;6.0;;
22675;SDS011;12521;43.310;21.876;2023-07-20T17:52:28;8.0;;;6.0;;
22675;SDS011;12521;43.310;21.876;2023-07-20T17:57:06;9.0;;;6.0;;
22675;SDS011;12521;43.310;21.876;2023-07-20T18:01:43;9.0;;;6.0;;
22675;SDS011;12521;43.310;21.876;2023-07-20T18:06:19;10.0;;;7.0;;
22675;SDS011;12521;43.310;21.876;2023-07-20T18:11:03;10.0;;;7.0;;
22675;SDS011;12521;43.310;21.876;2023-07-20T18:15:40;11.0;;;7.0;;
22675;SDS011;12521;43.310;21.876;2023-07-20T18:20:17;11.0;;;7.0;;
22675;SDS011;12521;43.310;21.876;2023-07-20T18:24:54;12.0;;;7.0;;
22675;SDS011;12521;43.310;21.876;2023-07-20T18:29:30;12.0;;;7.0;;
22675;SDS011;12521;43.310;21.876;2023-07-20T18:34:07;11.0;;;8.0;;
22675;SDS011;12521;43.310;21.876;2023-07-20T18:38:43;11.0;;;8.0;;
22675;SDS011;12521;43.310;21.876;2023-07-20T18:43:19;10.0;;;8.0;;
22675;SDS011;12521;43.310;21.876;2023-07-20T18:47:55;10.0;;;8.0;;
22675;SDS011;12521;43.310;21.876;2023-07-20T18:52:32;10.0;;;8.0;;
22675;SDS011;12521;43.310;21.876;2023-07-20T18:57:08;10.0;;;8.0;;
22675;SDS011;12521;43.310;21.876;2023-07-20T19:01:44;10.0;;;8.0;;
22675;SDS011;12521;43.310;21.876;2023-07-20T19:06:20;11.0;;;9.0;;
22675;SDS011;12521;43.310;21.876;2023-07-20T19:10:59;11.0;;;9.0;;
22675;SDS011;12521;43.310;21.876;2023-07-20T19:15:38;12.0;;;10.0;;
22675;SDS011;12521;43.310;21.876;2023-07-20T19:20:15;12.0;;;10.0;;
22675;SDS011;12521;43.310;21.876;2023-07-20T19:24:51;13.0;;;10.0;;
22675;SDS011;12521;43.310;21.876;2023-07-20T19:29:28;13.0;;;10.0;;
22675;SDS011;12521;43.310;21.876;2023-07-20T19:34:04;14.0;;;12.0;;
22675;SDS011;12521;43.310;21.876;2023-07-20T19:38:40;14.0;;;12.0;;
22675;SDS011;12521;43.310;21.876;2023-07-20T19:43:17;16.0;;;14.0;;
22675;SDS011;12521;43.310;21.876;2023-07-20T19:47:54;16.0;;;14.0;;
22675;SDS011;12521;43.310;21.876;2023-07-20T19:52:30;16.0;;;14.0;;
22675;SDS011;12521;43.310;21.876;2023-07-20T19:57:07;17.0;;;15.0;;
22675;SDS011;12521;43.310;21.876;2023-07-20T20:01:43;17.0;;;15.0;;
22675;SDS011;12521;43.310;21.876;2023-07-20T20:06:20;18.0;;;16.0;;
22675;SDS011;12521;43.310;21.876;2023-07-20T20:10:56;18.0;;;16.0;;
22675;SDS011;12521;43.310;21.876;2023-07-20T20:15:32;21.0;;;16.0;;
22675;SDS011;12521;43.310;21.876;2023-07-20T20:20:10;21.0;;;16.0;;
22675;SDS011;12521;43.310;21.876;2023-07-20T20:24:48;24.0;;;17.0;;
22675;SDS011;12521;43.310;21.876;2023-07-20T20:29:24;24.0;;;17.0;;
22675;SDS011;12521;43.310;21.876;2023-07-20T20:34:01;20.0;;;14.0;;
22675;SDS011;12521;43.310;21.876;2023-07-20T20:38:37;20.0;;;14.0;;
22675;SDS011;12521;43.310;21.876;2023-07-20T20:43:14;17.0;;;12.0;;
22675;SDS011;12521;43.310;21.876;2023-07-20T20:47:51;17.0;;;12.0;;
22675;SDS011;12521;43.310;21.876;2023-07-20T20:52:27;17.0;;;12.0;;
22675;SDS011;12521;43.310;21.876;2023-07-20T20:57:04;14.0;;;11.0;;
22675;SDS011;12521;43.310;21.876;2023-07-20T21:01:42;14.0;;;11.0;;
22675;SDS011;12521;43.310;21.876;2023-07-20T21:06:18;10.0;;;10.0;;
22675;SDS011;12521;43.310;21.876;2023-07-20T21:10:58;10.0;;;10.0;;
22675;SDS011;12521;43.310;21.876;2023-07-20T21:15:34;14.0;;;12.0;;
22675;SDS011;12521;43.310;21.876;2023-07-20T21:20:11;14.0;;;12.0;;
22675;SDS011;12521;43.310;21.876;2023-07-20T21:24:47;19.0;;;14.0;;
22675;SDS011;12521;43.310;21.876;2023-07-20T21:29:24;19.0;;;14.0;;
22675;SDS011;12521;43.310;21.876;2023-07-20T21:34:00;14.0;;;12.0;;
22675;SDS011;12521;43.310;21.876;2023-07-20T21:38:36;14.0;;;12.0;;
22675;SDS011;12521;43.310;21.876;2023-07-20T21:43:12;10.0;;;9.0;;
22675;SDS011;12521;43.310;21.876;2023-07-20T21:47:49;10.0;;;9.0;;
22675;SDS011;12521;43.310;21.876;2023-07-20T21:52:26;10.0;;;9.0;;
22675;SDS011;12521;43.310;21.876;2023-07-20T21:57:03;12.0;;;9.0;;
22675;SDS011;12521;43.310;21.876;2023-07-20T22:01:40;12.0;;;9.0;;
22675;SDS011;12521;43.310;21.876;2023-07-20T22:06:16;14.0;;;9.0;;
22675;SDS011;12521;43.310;21.876;2023-07-20T22:10:53;14.0;;;9.0;;
22675;SDS011;12521;43.310;21.876;2023-07-20T22:15:30;13.0;;;10.0;;
22675;SDS011;12521;43.310;21.876;2023-07-20T22:20:09;13.0;;;10.0;;
22675;SDS011;12521;43.310;21.876;2023-07-20T22:24:47;12.0;;;10.0;;
22675;SDS011;12521;43.310;21.876;2023-07-20T22:29:23;12.0;;;10.0;;
22675;SDS011;12521;43.310;21.876;2023-07-20T22:34:00;12.0;;;10.0;;
22675;SDS011;12521;43.310;21.876;2023-07-20T22:38:36;12.0;;;10.0;;
22675;SDS011;12521;43.310;21.876;2023-07-20T22:43:12;13.0;;;11.0;;
22675;SDS011;12521;43.310;21.876;2023-07-20T22:47:49;13.0;;;11.0;;
22675;SDS011;12521;43.310;21.876;2023-07-20T22:52:25;13.0;;;11.0;;
22675;SDS011;12521;43.310;21.876;2023-07-20T22:57:04;12.0;;;10.0;;
22675;SDS011;12521;43.310;21.876;2023-07-20T23:01:41;12.0;;;10.0;;
22675;SDS011;12521;43.310;21.876;2023-07-20T23:06:18;11.0;;;10.0;;
22675;SDS011;12521;43.310;21.876;2023-07-20T23:10:55;11.0;;;10.0;;
22675;SDS011;12521;43.310;21.876;2023-07-20T23:15:31;12.0;;;10.0;;
22675;SDS011;12521;43.310;21.876;2023-07-20T23:20:11;12.0;;;10.0;;
22675;SDS011;12521;43.310;21.876;2023-07-20T23:24:48;13.0;;;11.0;;
22675;SDS011;12521;43.310;21.876;2023-07-20T23:29:25;13.0;;;11.0;;
22675;SDS011;12521;43.310;21.876;2023-07-20T23:34:01;12.0;;;10.0;;
22675;SDS011;12521;43.310;21.876;2023-07-20T23:38:39;12.0;;;10.0;;
22675;SDS011;12521;43.310;21.876;2023-07-20T23:43:15;12.0;;;10.0;;
22675;SDS011;12521;43.310;21.876;2023-07-20T23:47:52;12.0;;;10.0;;
22675;SDS011;12521;43.310;21.876;2023-07-20T23:52:28;12.0;;;10.0;;
22675;SDS011;12521;43.310;21.876;2023-07-20T23:57:06;14.0;;;11.0;;
